sensor_id;sensor_type;location;lat;lon;timestamp;P1;durP1;ratioP1;P2;durP2;ratioP2
23898;SDS011;20544;50.018;20.010;2022-12-18T00:01:59;95.10;;;38.75;;
23898;SDS011;20544;50.018;20.010;2022-12-18T00:05:15;82.88;;;37.38;;
23898;SDS011;20544;50.018;20.010;2022-12-18T00:08:31;81.60;;;39.38;;
23898;SDS011;20544;50.018;20.010;2022-12-18T00:11:48;79.13;;;37.58;;
23898;SDS011;20544;50.018;20.010;2022-12-18T00:15:05;86.58;;;39.53;;
23898;SDS011;20544;50.018;20.010;2022-12-18T00:18:22;84.00;;;37.58;;
23898;SDS011;20544;50.018;20.010;2022-12-18T00:21:38;80.55;;;38.10;;
23898;SDS011;20544;50.018;20.010;2022-12-18T00:24:55;78.23;;;37.20;;
23898;SDS011;20544;50.018;20.010;2022-12-18T00:28:11;81.45;;;37.73;;
23898;SDS011;20544;50.018;20.010;2022-12-18T00:31:27;84.38;;;37.93;;
23898;SDS011;20544;50.018;20.010;2022-12-18T00:34:44;74.80;;;36.25;;
23898;SDS011;20544;50.018;20.010;2022-12-18T00:38:02;76.65;;;36.18;;
23898;SDS011;20544;50.018;20.010;2022-12-18T00:41:18;79.05;;;36.55;;
23898;SDS011;20544;50.018;20.010;2022-12-18T00:44:49;79.53;;;37.48;;
23898;SDS011;20544;50.018;20.010;2022-12-18T00:48:06;77.58;;;36.58;;
23898;SDS011;20544;50.018;20.010;2022-12-18T00:51:22;78.25;;;35.95;;
23898;SDS011;20544;50.018;20.010;2022-12-18T00:54:39;76.00;;;35.13;;
23898;SDS011;20544;50.018;20.010;2022-12-18T00:57:56;79.05;;;37.68;;
23898;SDS011;20544;50.018;20.010;2022-12-18T01:01:13;78.00;;;36.60;;
23898;SDS011;20544;50.018;20.010;2022-12-18T01:04:32;74.98;;;35.70;;
23898;SDS011;20544;50.018;20.010;2022-12-18T01:07:48;74.73;;;36.18;;
23898;SDS011;20544;50.018;20.010;2022-12-18T01:11:08;71.95;;;34.53;;
23898;SDS011;20544;50.018;20.010;2022-12-18T01:14:26;79.98;;;36.40;;
23898;SDS011;20544;50.018;20.010;2022-12-18T01:17:43;78.30;;;36.93;;
23898;SDS011;20544;50.018;20.010;2022-12-18T01:21:00;72.25;;;34.28;;
23898;SDS011;20544;50.018;20.010;2022-12-18T01:27:34;73.30;;;35.38;;
23898;SDS011;20544;50.018;20.010;2022-12-18T01:30:51;72.25;;;37.05;;
23898;SDS011;20544;50.018;20.010;2022-12-18T01:34:08;83.58;;;38.95;;
23898;SDS011;20544;50.018;20.010;2022-12-18T01:37:24;74.98;;;36.55;;
23898;SDS011;20544;50.018;20.010;2022-12-18T01:40:41;76.05;;;36.63;;
23898;SDS011;20544;50.018;20.010;2022-12-18T01:43:59;76.35;;;37.80;;
23898;SDS011;20544;50.018;20.010;2022-12-18T01:47:30;71.43;;;35.80;;
23898;SDS011;20544;50.018;20.010;2022-12-18T01:50:52;71.23;;;35.13;;
23898;SDS011;20544;50.018;20.010;2022-12-18T01:54:08;69.03;;;34.45;;
23898;SDS011;20544;50.018;20.010;2022-12-18T01:57:25;73.40;;;34.95;;
23898;SDS011;20544;50.018;20.010;2022-12-18T02:00:42;75.73;;;35.65;;
23898;SDS011;20544;50.018;20.010;2022-12-18T02:07:40;67.35;;;33.83;;
23898;SDS011;20544;50.018;20.010;2022-12-18T02:11:05;71.73;;;35.08;;
23898;SDS011;20544;50.018;20.010;2022-12-18T02:14:27;71.30;;;35.05;;
23898;SDS011;20544;50.018;20.010;2022-12-18T02:17:47;67.60;;;34.68;;
23898;SDS011;20544;50.018;20.010;2022-12-18T02:21:12;66.68;;;33.85;;
23898;SDS011;20544;50.018;20.010;2022-12-18T02:24:33;64.63;;;32.93;;
23898;SDS011;20544;50.018;20.010;2022-12-18T02:27:54;74.30;;;35.33;;
23898;SDS011;20544;50.018;20.010;2022-12-18T02:31:15;72.45;;;34.33;;
23898;SDS011;20544;50.018;20.010;2022-12-18T02:34:36;73.33;;;34.73;;
23898;SDS011;20544;50.018;20.010;2022-12-18T02:37:56;66.98;;;33.05;;
23898;SDS011;20544;50.018;20.010;2022-12-18T02:41:14;69.18;;;34.60;;
23898;SDS011;20544;50.018;20.010;2022-12-18T02:44:32;68.73;;;34.00;;
23898;SDS011;20544;50.018;20.010;2022-12-18T02:47:57;70.33;;;33.50;;
23898;SDS011;20544;50.018;20.010;2022-12-18T02:51:15;75.05;;;34.75;;
23898;SDS011;20544;50.018;20.010;2022-12-18T02:54:42;71.63;;;34.40;;
23898;SDS011;20544;50.018;20.010;2022-12-18T02:58:13;74.33;;;35.90;;
23898;SDS011;20544;50.018;20.010;2022-12-18T03:01:35;71.33;;;33.58;;
23898;SDS011;20544;50.018;20.010;2022-12-18T03:04:57;74.43;;;35.20;;
23898;SDS011;20544;50.018;20.010;2022-12-18T03:08:18;70.78;;;35.55;;
23898;SDS011;20544;50.018;20.010;2022-12-18T03:11:40;71.35;;;34.78;;
23898;SDS011;20544;50.018;20.010;2022-12-18T03:15:16;73.68;;;35.15;;
23898;SDS011;20544;50.018;20.010;2022-12-18T03:18:39;72.65;;;36.43;;
23898;SDS011;20544;50.018;20.010;2022-12-18T03:21:58;74.65;;;34.28;;
23898;SDS011;20544;50.018;20.010;2022-12-18T03:25:19;69.90;;;34.65;;
23898;SDS011;20544;50.018;20.010;2022-12-18T03:28:38;74.03;;;35.93;;
23898;SDS011;20544;50.018;20.010;2022-12-18T03:32:00;67.65;;;32.23;;
23898;SDS011;20544;50.018;20.010;2022-12-18T03:35:21;74.45;;;34.63;;
23898;SDS011;20544;50.018;20.010;2022-12-18T03:38:41;65.18;;;33.25;;
23898;SDS011;20544;50.018;20.010;2022-12-18T03:42:01;66.38;;;32.65;;
23898;SDS011;20544;50.018;20.010;2022-12-18T03:45:22;62.68;;;31.08;;
23898;SDS011;20544;50.018;20.010;2022-12-18T03:48:44;69.48;;;33.10;;
23898;SDS011;20544;50.018;20.010;2022-12-18T03:52:11;65.95;;;33.45;;
23898;SDS011;20544;50.018;20.010;2022-12-18T03:55:32;69.85;;;33.48;;
23898;SDS011;20544;50.018;20.010;2022-12-18T03:58:51;66.18;;;33.18;;
23898;SDS011;20544;50.018;20.010;2022-12-18T04:02:10;71.10;;;34.83;;
23898;SDS011;20544;50.018;20.010;2022-12-18T04:05:29;65.73;;;33.43;;
23898;SDS011;20544;50.018;20.010;2022-12-18T04:08:49;69.05;;;33.00;;
23898;SDS011;20544;50.018;20.010;2022-12-18T04:12:06;67.38;;;32.80;;
23898;SDS011;20544;50.018;20.010;2022-12-18T04:15:25;70.73;;;33.20;;
23898;SDS011;20544;50.018;20.010;2022-12-18T04:18:42;67.38;;;33.33;;
23898;SDS011;20544;50.018;20.010;2022-12-18T04:21:59;64.98;;;32.50;;
23898;SDS011;20544;50.018;20.010;2022-12-18T04:25:17;70.08;;;31.85;;
23898;SDS011;20544;50.018;20.010;2022-12-18T04:28:36;67.95;;;32.83;;
23898;SDS011;20544;50.018;20.010;2022-12-18T04:31:53;67.68;;;32.38;;
23898;SDS011;20544;50.018;20.010;2022-12-18T04:35:09;68.95;;;31.50;;
23898;SDS011;20544;50.018;20.010;2022-12-18T04:38:26;67.00;;;32.63;;
23898;SDS011;20544;50.018;20.010;2022-12-18T04:41:44;70.00;;;32.40;;
23898;SDS011;20544;50.018;20.010;2022-12-18T04:45:00;72.63;;;32.78;;
23898;SDS011;20544;50.018;20.010;2022-12-18T04:48:17;72.43;;;34.23;;
23898;SDS011;20544;50.018;20.010;2022-12-18T04:51:34;77.25;;;34.90;;
23898;SDS011;20544;50.018;20.010;2022-12-18T04:54:50;73.00;;;36.33;;
23898;SDS011;20544;50.018;20.010;2022-12-18T04:58:07;80.05;;;36.18;;
23898;SDS011;20544;50.018;20.010;2022-12-18T05:01:23;74.55;;;35.28;;
23898;SDS011;20544;50.018;20.010;2022-12-18T05:04:41;73.55;;;35.60;;
23898;SDS011;20544;50.018;20.010;2022-12-18T05:07:57;74.70;;;35.28;;
23898;SDS011;20544;50.018;20.010;2022-12-18T05:11:14;79.83;;;35.35;;
23898;SDS011;20544;50.018;20.010;2022-12-18T05:14:30;69.75;;;33.90;;
23898;SDS011;20544;50.018;20.010;2022-12-18T05:17:47;76.35;;;35.85;;
23898;SDS011;20544;50.018;20.010;2022-12-18T05:21:03;68.60;;;31.60;;
23898;SDS011;20544;50.018;20.010;2022-12-18T05:24:20;72.80;;;32.75;;
23898;SDS011;20544;50.018;20.010;2022-12-18T05:27:37;69.78;;;31.48;;
23898;SDS011;20544;50.018;20.010;2022-12-18T05:30:54;69.60;;;32.93;;
23898;SDS011;20544;50.018;20.010;2022-12-18T05:34:13;68.90;;;32.90;;
23898;SDS011;20544;50.018;20.010;2022-12-18T05:37:30;65.83;;;32.23;;
23898;SDS011;20544;50.018;20.010;2022-12-18T05:40:48;72.65;;;33.95;;
23898;SDS011;20544;50.018;20.010;2022-12-18T05:44:05;67.23;;;32.00;;
23898;SDS011;20544;50.018;20.010;2022-12-18T05:47:21;70.10;;;33.45;;
23898;SDS011;20544;50.018;20.010;2022-12-18T05:50:39;69.68;;;32.30;;
23898;SDS011;20544;50.018;20.010;2022-12-18T05:53:57;64.35;;;31.50;;
23898;SDS011;20544;50.018;20.010;2022-12-18T05:57:14;68.50;;;30.73;;
23898;SDS011;20544;50.018;20.010;2022-12-18T06:00:31;69.68;;;31.98;;
23898;SDS011;20544;50.018;20.010;2022-12-18T06:03:51;68.23;;;32.90;;
23898;SDS011;20544;50.018;20.010;2022-12-18T06:07:09;68.85;;;32.40;;
23898;SDS011;20544;50.018;20.010;2022-12-18T06:10:25;69.65;;;32.75;;
23898;SDS011;20544;50.018;20.010;2022-12-18T06:13:42;69.35;;;32.65;;
23898;SDS011;20544;50.018;20.010;2022-12-18T06:17:02;68.13;;;33.08;;
23898;SDS011;20544;50.018;20.010;2022-12-18T06:20:21;75.10;;;34.45;;
23898;SDS011;20544;50.018;20.010;2022-12-18T06:23:39;70.65;;;33.28;;
23898;SDS011;20544;50.018;20.010;2022-12-18T06:26:55;73.20;;;34.80;;
23898;SDS011;20544;50.018;20.010;2022-12-18T06:30:12;71.83;;;33.13;;
23898;SDS011;20544;50.018;20.010;2022-12-18T06:33:29;77.13;;;34.78;;
23898;SDS011;20544;50.018;20.010;2022-12-18T06:36:46;71.90;;;33.25;;
23898;SDS011;20544;50.018;20.010;2022-12-18T06:40:03;73.48;;;32.30;;
23898;SDS011;20544;50.018;20.010;2022-12-18T06:43:21;75.27;;;33.00;;
23898;SDS011;20544;50.018;20.010;2022-12-18T06:46:38;75.25;;;34.15;;
23898;SDS011;20544;50.018;20.010;2022-12-18T06:49:54;70.15;;;33.45;;
23898;SDS011;20544;50.018;20.010;2022-12-18T06:53:10;69.05;;;33.25;;
23898;SDS011;20544;50.018;20.010;2022-12-18T06:56:27;73.38;;;33.93;;
23898;SDS011;20544;50.018;20.010;2022-12-18T06:59:44;77.60;;;34.38;;
23898;SDS011;20544;50.018;20.010;2022-12-18T07:03:00;75.35;;;33.03;;
23898;SDS011;20544;50.018;20.010;2022-12-18T07:06:19;77.50;;;34.48;;
23898;SDS011;20544;50.018;20.010;2022-12-18T07:09:37;78.20;;;34.60;;
23898;SDS011;20544;50.018;20.010;2022-12-18T07:12:53;75.13;;;34.45;;
23898;SDS011;20544;50.018;20.010;2022-12-18T07:16:10;74.13;;;35.20;;
23898;SDS011;20544;50.018;20.010;2022-12-18T07:19:31;75.90;;;34.98;;
23898;SDS011;20544;50.018;20.010;2022-12-18T07:22:47;75.75;;;34.78;;
23898;SDS011;20544;50.018;20.010;2022-12-18T07:26:04;79.80;;;38.08;;
23898;SDS011;20544;50.018;20.010;2022-12-18T07:29:22;82.55;;;37.15;;
23898;SDS011;20544;50.018;20.010;2022-12-18T07:32:38;78.38;;;35.60;;
23898;SDS011;20544;50.018;20.010;2022-12-18T07:35:54;73.85;;;34.73;;
23898;SDS011;20544;50.018;20.010;2022-12-18T07:39:16;83.13;;;37.40;;
23898;SDS011;20544;50.018;20.010;2022-12-18T07:42:38;81.28;;;36.08;;
23898;SDS011;20544;50.018;20.010;2022-12-18T07:49:11;78.00;;;36.40;;
23898;SDS011;20544;50.018;20.010;2022-12-18T07:52:28;80.55;;;36.40;;
23898;SDS011;20544;50.018;20.010;2022-12-18T07:55:44;75.83;;;37.98;;
23898;SDS011;20544;50.018;20.010;2022-12-18T07:59:02;84.23;;;39.28;;
23898;SDS011;20544;50.018;20.010;2022-12-18T08:02:18;80.38;;;38.00;;
23898;SDS011;20544;50.018;20.010;2022-12-18T08:05:36;77.00;;;35.78;;
23898;SDS011;20544;50.018;20.010;2022-12-18T08:08:55;80.08;;;37.50;;
23898;SDS011;20544;50.018;20.010;2022-12-18T08:12:12;76.78;;;34.38;;
23898;SDS011;20544;50.018;20.010;2022-12-18T08:15:28;75.83;;;37.13;;
23898;SDS011;20544;50.018;20.010;2022-12-18T08:18:45;76.90;;;37.55;;
23898;SDS011;20544;50.018;20.010;2022-12-18T08:22:03;78.05;;;36.08;;
23898;SDS011;20544;50.018;20.010;2022-12-18T08:25:22;76.58;;;34.25;;
23898;SDS011;20544;50.018;20.010;2022-12-18T08:28:38;79.63;;;36.73;;
23898;SDS011;20544;50.018;20.010;2022-12-18T08:31:56;76.85;;;36.00;;
23898;SDS011;20544;50.018;20.010;2022-12-18T08:35:12;79.55;;;34.85;;
23898;SDS011;20544;50.018;20.010;2022-12-18T08:38:29;72.53;;;35.23;;
23898;SDS011;20544;50.018;20.010;2022-12-18T08:41:47;72.48;;;34.43;;
23898;SDS011;20544;50.018;20.010;2022-12-18T08:45:15;68.20;;;32.75;;
23898;SDS011;20544;50.018;20.010;2022-12-18T08:48:31;67.15;;;32.65;;
23898;SDS011;20544;50.018;20.010;2022-12-18T08:51:48;93.08;;;37.85;;
23898;SDS011;20544;50.018;20.010;2022-12-18T08:58:25;67.43;;;31.55;;
23898;SDS011;20544;50.018;20.010;2022-12-18T09:01:42;69.78;;;32.03;;
23898;SDS011;20544;50.018;20.010;2022-12-18T09:05:04;61.55;;;29.90;;
23898;SDS011;20544;50.018;20.010;2022-12-18T09:08:23;69.90;;;33.63;;
23898;SDS011;20544;50.018;20.010;2022-12-18T09:11:41;67.23;;;32.38;;
23898;SDS011;20544;50.018;20.010;2022-12-18T09:14:59;68.23;;;32.60;;
23898;SDS011;20544;50.018;20.010;2022-12-18T09:18:17;66.98;;;32.50;;
23898;SDS011;20544;50.018;20.010;2022-12-18T09:21:35;69.53;;;33.45;;
23898;SDS011;20544;50.018;20.010;2022-12-18T09:24:53;64.78;;;31.48;;
23898;SDS011;20544;50.018;20.010;2022-12-18T09:28:12;63.48;;;31.43;;
23898;SDS011;20544;50.018;20.010;2022-12-18T09:31:30;62.30;;;30.50;;
23898;SDS011;20544;50.018;20.010;2022-12-18T09:34:47;65.13;;;32.18;;
23898;SDS011;20544;50.018;20.010;2022-12-18T09:38:04;68.43;;;33.33;;
23898;SDS011;20544;50.018;20.010;2022-12-18T09:41:29;64.68;;;32.90;;
23898;SDS011;20544;50.018;20.010;2022-12-18T09:45:00;65.27;;;32.03;;
23898;SDS011;20544;50.018;20.010;2022-12-18T09:48:23;69.68;;;31.70;;
23898;SDS011;20544;50.018;20.010;2022-12-18T09:51:44;61.35;;;30.80;;
23898;SDS011;20544;50.018;20.010;2022-12-18T09:55:05;64.28;;;31.25;;
23898;SDS011;20544;50.018;20.010;2022-12-18T09:58:29;71.98;;;34.30;;
23898;SDS011;20544;50.018;20.010;2022-12-18T10:01:51;68.58;;;32.80;;
23898;SDS011;20544;50.018;20.010;2022-12-18T10:05:10;67.80;;;32.85;;
23898;SDS011;20544;50.018;20.010;2022-12-18T10:08:34;66.75;;;32.15;;
23898;SDS011;20544;50.018;20.010;2022-12-18T10:11:56;70.93;;;32.55;;
23898;SDS011;20544;50.018;20.010;2022-12-18T10:15:21;66.60;;;32.55;;
23898;SDS011;20544;50.018;20.010;2022-12-18T10:22:24;66.70;;;33.68;;
23898;SDS011;20544;50.018;20.010;2022-12-18T10:25:51;68.85;;;32.23;;
23898;SDS011;20544;50.018;20.010;2022-12-18T10:29:13;65.98;;;32.65;;
23898;SDS011;20544;50.018;20.010;2022-12-18T10:32:30;64.90;;;31.48;;
23898;SDS011;20544;50.018;20.010;2022-12-18T10:35:47;65.35;;;33.18;;
23898;SDS011;20544;50.018;20.010;2022-12-18T10:39:15;62.00;;;31.23;;
23898;SDS011;20544;50.018;20.010;2022-12-18T10:42:34;56.88;;;27.98;;
23898;SDS011;20544;50.018;20.010;2022-12-18T10:45:59;60.23;;;28.83;;
23898;SDS011;20544;50.018;20.010;2022-12-18T10:49:29;241.85;;;124.98;;
23898;SDS011;20544;50.018;20.010;2022-12-18T10:52:56;64.88;;;32.40;;
23898;SDS011;20544;50.018;20.010;2022-12-18T10:56:16;58.05;;;28.58;;
23898;SDS011;20544;50.018;20.010;2022-12-18T10:59:35;51.97;;;25.43;;
23898;SDS011;20544;50.018;20.010;2022-12-18T11:03:02;48.97;;;23.87;;
23898;SDS011;20544;50.018;20.010;2022-12-18T11:06:36;52.30;;;26.00;;
23898;SDS011;20544;50.018;20.010;2022-12-18T11:10:15;52.58;;;25.28;;
23898;SDS011;20544;50.018;20.010;2022-12-18T11:13:34;53.73;;;25.75;;
23898;SDS011;20544;50.018;20.010;2022-12-18T11:16:50;50.55;;;23.70;;
23898;SDS011;20544;50.018;20.010;2022-12-18T11:20:19;50.13;;;25.13;;
23898;SDS011;20544;50.018;20.010;2022-12-18T11:23:46;54.98;;;26.18;;
23898;SDS011;20544;50.018;20.010;2022-12-18T11:27:05;49.35;;;24.30;;
23898;SDS011;20544;50.018;20.010;2022-12-18T11:30:30;46.58;;;22.98;;
23898;SDS011;20544;50.018;20.010;2022-12-18T11:33:59;50.88;;;25.43;;
23898;SDS011;20544;50.018;20.010;2022-12-18T11:37:23;56.50;;;27.60;;
23898;SDS011;20544;50.018;20.010;2022-12-18T11:40:42;56.87;;;29.07;;
23898;SDS011;20544;50.018;20.010;2022-12-18T11:44:04;57.45;;;26.20;;
23898;SDS011;20544;50.018;20.010;2022-12-18T11:47:27;48.93;;;23.83;;
23898;SDS011;20544;50.018;20.010;2022-12-18T11:50:51;45.78;;;22.75;;
23898;SDS011;20544;50.018;20.010;2022-12-18T11:54:11;48.40;;;23.00;;
23898;SDS011;20544;50.018;20.010;2022-12-18T11:57:34;49.15;;;22.45;;
23898;SDS011;20544;50.018;20.010;2022-12-18T12:00:55;139.35;;;68.28;;
23898;SDS011;20544;50.018;20.010;2022-12-18T12:04:19;54.68;;;26.78;;
23898;SDS011;20544;50.018;20.010;2022-12-18T12:08:07;49.70;;;23.90;;
23898;SDS011;20544;50.018;20.010;2022-12-18T12:11:29;43.98;;;22.65;;
23898;SDS011;20544;50.018;20.010;2022-12-18T12:14:54;43.58;;;21.10;;
23898;SDS011;20544;50.018;20.010;2022-12-18T12:18:20;42.60;;;20.52;;
23898;SDS011;20544;50.018;20.010;2022-12-18T12:21:45;40.45;;;21.20;;
23898;SDS011;20544;50.018;20.010;2022-12-18T12:25:12;43.38;;;20.25;;
23898;SDS011;20544;50.018;20.010;2022-12-18T12:28:59;40.28;;;21.13;;
23898;SDS011;20544;50.018;20.010;2022-12-18T12:32:28;42.90;;;22.08;;
23898;SDS011;20544;50.018;20.010;2022-12-18T12:36:06;41.90;;;20.65;;
23898;SDS011;20544;50.018;20.010;2022-12-18T12:39:29;45.83;;;22.45;;
23898;SDS011;20544;50.018;20.010;2022-12-18T12:42:52;46.03;;;22.80;;
23898;SDS011;20544;50.018;20.010;2022-12-18T12:46:25;85.10;;;43.83;;
23898;SDS011;20544;50.018;20.010;2022-12-18T12:49:45;49.18;;;23.55;;
23898;SDS011;20544;50.018;20.010;2022-12-18T12:53:05;44.28;;;21.53;;
23898;SDS011;20544;50.018;20.010;2022-12-18T12:56:26;41.40;;;22.13;;
23898;SDS011;20544;50.018;20.010;2022-12-18T12:59:52;44.55;;;22.88;;
23898;SDS011;20544;50.018;20.010;2022-12-18T13:03:26;48.33;;;22.58;;
23898;SDS011;20544;50.018;20.010;2022-12-18T13:06:47;46.03;;;22.98;;
23898;SDS011;20544;50.018;20.010;2022-12-18T13:10:22;43.98;;;22.28;;
23898;SDS011;20544;50.018;20.010;2022-12-18T13:13:50;41.90;;;21.93;;
23898;SDS011;20544;50.018;20.010;2022-12-18T13:17:21;44.88;;;22.75;;
23898;SDS011;20544;50.018;20.010;2022-12-18T13:20:45;44.83;;;22.03;;
23898;SDS011;20544;50.018;20.010;2022-12-18T13:24:15;45.03;;;23.15;;
23898;SDS011;20544;50.018;20.010;2022-12-18T13:27:58;48.93;;;23.50;;
23898;SDS011;20544;50.018;20.010;2022-12-18T13:35:41;48.30;;;23.48;;
23898;SDS011;20544;50.018;20.010;2022-12-18T13:39:24;41.38;;;22.68;;
23898;SDS011;20544;50.018;20.010;2022-12-18T13:42:50;48.20;;;23.08;;
23898;SDS011;20544;50.018;20.010;2022-12-18T13:46:27;45.55;;;23.68;;
23898;SDS011;20544;50.018;20.010;2022-12-18T13:49:53;46.25;;;23.38;;
23898;SDS011;20544;50.018;20.010;2022-12-18T13:53:15;52.15;;;26.48;;
23898;SDS011;20544;50.018;20.010;2022-12-18T13:56:42;58.85;;;27.88;;
23898;SDS011;20544;50.018;20.010;2022-12-18T13:59:57;62.30;;;30.58;;
23898;SDS011;20544;50.018;20.010;2022-12-18T14:03:28;61.68;;;31.58;;
23898;SDS011;20544;50.018;20.010;2022-12-18T14:06:46;61.85;;;31.70;;
23898;SDS011;20544;50.018;20.010;2022-12-18T14:10:11;69.53;;;32.77;;
23898;SDS011;20544;50.018;20.010;2022-12-18T14:13:32;64.40;;;32.55;;
23898;SDS011;20544;50.018;20.010;2022-12-18T14:16:53;69.13;;;34.30;;
23898;SDS011;20544;50.018;20.010;2022-12-18T14:20:14;70.30;;;35.75;;
23898;SDS011;20544;50.018;20.010;2022-12-18T14:23:33;65.80;;;34.95;;
23898;SDS011;20544;50.018;20.010;2022-12-18T14:26:52;67.95;;;35.48;;
23898;SDS011;20544;50.018;20.010;2022-12-18T14:33:45;72.58;;;35.93;;
23898;SDS011;20544;50.018;20.010;2022-12-18T14:37:02;70.80;;;36.45;;
23898;SDS011;20544;50.018;20.010;2022-12-18T14:40:19;71.48;;;35.75;;
23898;SDS011;20544;50.018;20.010;2022-12-18T14:43:38;69.75;;;36.23;;
23898;SDS011;20544;50.018;20.010;2022-12-18T14:46:59;75.80;;;39.43;;
23898;SDS011;20544;50.018;20.010;2022-12-18T14:50:16;74.25;;;39.08;;
23898;SDS011;20544;50.018;20.010;2022-12-18T14:53:37;78.90;;;40.00;;
23898;SDS011;20544;50.018;20.010;2022-12-18T14:57:00;88.93;;;43.60;;
23898;SDS011;20544;50.018;20.010;2022-12-18T15:00:26;84.18;;;41.33;;
23898;SDS011;20544;50.018;20.010;2022-12-18T15:03:44;78.45;;;40.30;;
23898;SDS011;20544;50.018;20.010;2022-12-18T15:07:09;74.25;;;39.13;;
23898;SDS011;20544;50.018;20.010;2022-12-18T15:10:31;77.30;;;38.65;;
23898;SDS011;20544;50.018;20.010;2022-12-18T15:13:50;73.50;;;37.10;;
23898;SDS011;20544;50.018;20.010;2022-12-18T15:17:17;73.08;;;37.45;;
23898;SDS011;20544;50.018;20.010;2022-12-18T15:20:40;71.80;;;37.40;;
23898;SDS011;20544;50.018;20.010;2022-12-18T15:23:59;73.15;;;38.08;;
23898;SDS011;20544;50.018;20.010;2022-12-18T15:27:27;72.08;;;37.68;;
23898;SDS011;20544;50.018;20.010;2022-12-18T15:31:04;73.48;;;39.35;;
23898;SDS011;20544;50.018;20.010;2022-12-18T15:34:38;82.53;;;41.95;;
23898;SDS011;20544;50.018;20.010;2022-12-18T15:37:56;82.25;;;44.85;;
23898;SDS011;20544;50.018;20.010;2022-12-18T15:41:14;84.38;;;44.18;;
23898;SDS011;20544;50.018;20.010;2022-12-18T15:44:33;85.73;;;42.00;;
23898;SDS011;20544;50.018;20.010;2022-12-18T15:48:01;74.95;;;38.10;;
23898;SDS011;20544;50.018;20.010;2022-12-18T15:51:34;74.90;;;39.83;;
23898;SDS011;20544;50.018;20.010;2022-12-18T15:54:58;78.53;;;38.33;;
23898;SDS011;20544;50.018;20.010;2022-12-18T15:58:30;78.05;;;39.73;;
23898;SDS011;20544;50.018;20.010;2022-12-18T16:01:48;78.25;;;39.90;;
23898;SDS011;20544;50.018;20.010;2022-12-18T16:05:10;170.05;;;87.15;;
23898;SDS011;20544;50.018;20.010;2022-12-18T16:08:31;114.43;;;55.83;;
23898;SDS011;20544;50.018;20.010;2022-12-18T16:11:55;105.55;;;52.63;;
23898;SDS011;20544;50.018;20.010;2022-12-18T16:15:16;102.78;;;52.28;;
23898;SDS011;20544;50.018;20.010;2022-12-18T16:18:33;105.88;;;54.18;;
23898;SDS011;20544;50.018;20.010;2022-12-18T16:21:50;102.58;;;51.08;;
23898;SDS011;20544;50.018;20.010;2022-12-18T16:25:09;110.13;;;54.55;;
23898;SDS011;20544;50.018;20.010;2022-12-18T16:28:40;132.48;;;68.73;;
23898;SDS011;20544;50.018;20.010;2022-12-18T16:32:00;96.73;;;48.65;;
23898;SDS011;20544;50.018;20.010;2022-12-18T16:35:17;88.15;;;45.63;;
23898;SDS011;20544;50.018;20.010;2022-12-18T16:38:34;96.60;;;47.55;;
23898;SDS011;20544;50.018;20.010;2022-12-18T16:41:51;93.53;;;47.45;;
23898;SDS011;20544;50.018;20.010;2022-12-18T16:45:12;94.08;;;46.63;;
23898;SDS011;20544;50.018;20.010;2022-12-18T16:48:30;96.83;;;48.65;;
23898;SDS011;20544;50.018;20.010;2022-12-18T16:51:48;99.68;;;49.75;;
23898;SDS011;20544;50.018;20.010;2022-12-18T16:55:05;96.55;;;50.88;;
23898;SDS011;20544;50.018;20.010;2022-12-18T16:58:23;101.40;;;52.80;;
23898;SDS011;20544;50.018;20.010;2022-12-18T17:01:51;112.78;;;56.60;;
23898;SDS011;20544;50.018;20.010;2022-12-18T17:05:12;99.40;;;51.45;;
23898;SDS011;20544;50.018;20.010;2022-12-18T17:08:29;99.38;;;50.18;;
23898;SDS011;20544;50.018;20.010;2022-12-18T17:11:46;98.58;;;50.80;;
23898;SDS011;20544;50.018;20.010;2022-12-18T17:15:07;96.63;;;49.25;;
23898;SDS011;20544;50.018;20.010;2022-12-18T17:18:25;100.78;;;50.53;;
23898;SDS011;20544;50.018;20.010;2022-12-18T17:21:42;106.60;;;52.60;;
23898;SDS011;20544;50.018;20.010;2022-12-18T17:25:01;99.45;;;51.65;;
23898;SDS011;20544;50.018;20.010;2022-12-18T17:28:18;104.73;;;53.85;;
23898;SDS011;20544;50.018;20.010;2022-12-18T17:31:35;106.28;;;53.65;;
23898;SDS011;20544;50.018;20.010;2022-12-18T17:34:51;105.15;;;53.80;;
23898;SDS011;20544;50.018;20.010;2022-12-18T17:38:10;112.00;;;56.13;;
23898;SDS011;20544;50.018;20.010;2022-12-18T17:41:27;112.88;;;57.58;;
23898;SDS011;20544;50.018;20.010;2022-12-18T17:44:45;131.80;;;67.05;;
23898;SDS011;20544;50.018;20.010;2022-12-18T17:48:03;113.13;;;58.45;;
23898;SDS011;20544;50.018;20.010;2022-12-18T17:51:20;114.93;;;60.13;;
23898;SDS011;20544;50.018;20.010;2022-12-18T17:54:37;120.08;;;63.05;;
23898;SDS011;20544;50.018;20.010;2022-12-18T17:57:54;120.08;;;62.15;;
23898;SDS011;20544;50.018;20.010;2022-12-18T18:01:10;125.25;;;64.88;;
23898;SDS011;20544;50.018;20.010;2022-12-18T18:04:30;119.18;;;61.90;;
23898;SDS011;20544;50.018;20.010;2022-12-18T18:07:46;125.50;;;66.45;;
23898;SDS011;20544;50.018;20.010;2022-12-18T18:11:06;153.35;;;84.10;;
23898;SDS011;20544;50.018;20.010;2022-12-18T18:14:40;135.38;;;70.50;;
23898;SDS011;20544;50.018;20.010;2022-12-18T18:17:57;137.80;;;68.48;;
23898;SDS011;20544;50.018;20.010;2022-12-18T18:21:17;139.48;;;71.18;;
23898;SDS011;20544;50.018;20.010;2022-12-18T18:24:34;135.30;;;72.03;;
23898;SDS011;20544;50.018;20.010;2022-12-18T18:27:51;144.25;;;72.83;;
23898;SDS011;20544;50.018;20.010;2022-12-18T18:31:08;145.10;;;72.68;;
23898;SDS011;20544;50.018;20.010;2022-12-18T18:37:43;144.48;;;73.80;;
23898;SDS011;20544;50.018;20.010;2022-12-18T18:41:01;144.85;;;75.05;;
23898;SDS011;20544;50.018;20.010;2022-12-18T18:44:19;145.18;;;75.23;;
23898;SDS011;20544;50.018;20.010;2022-12-18T18:47:37;146.28;;;77.53;;
23898;SDS011;20544;50.018;20.010;2022-12-18T18:50:58;155.05;;;80.85;;
23898;SDS011;20544;50.018;20.010;2022-12-18T18:54:20;148.33;;;76.83;;
23898;SDS011;20544;50.018;20.010;2022-12-18T18:57:37;147.90;;;77.03;;
23898;SDS011;20544;50.018;20.010;2022-12-18T19:00:55;150.83;;;78.35;;
23898;SDS011;20544;50.018;20.010;2022-12-18T19:04:14;152.50;;;79.80;;
23898;SDS011;20544;50.018;20.010;2022-12-18T19:07:31;171.70;;;86.98;;
23898;SDS011;20544;50.018;20.010;2022-12-18T19:10:51;170.88;;;84.75;;
23898;SDS011;20544;50.018;20.010;2022-12-18T19:14:11;177.73;;;89.00;;
23898;SDS011;20544;50.018;20.010;2022-12-18T19:17:44;182.13;;;90.53;;
23898;SDS011;20544;50.018;20.010;2022-12-18T19:21:01;178.00;;;89.15;;
23898;SDS011;20544;50.018;20.010;2022-12-18T19:24:20;178.50;;;89.45;;
23898;SDS011;20544;50.018;20.010;2022-12-18T19:27:41;172.28;;;87.83;;
23898;SDS011;20544;50.018;20.010;2022-12-18T19:30:59;176.58;;;87.65;;
23898;SDS011;20544;50.018;20.010;2022-12-18T19:34:19;179.28;;;90.78;;
23898;SDS011;20544;50.018;20.010;2022-12-18T19:37:35;178.95;;;88.83;;
23898;SDS011;20544;50.018;20.010;2022-12-18T19:40:52;179.53;;;88.75;;